createdAt,value
2022-07-25T00:00:02.652Z,19.79
2022-07-25T00:15:01.677Z,36.72
2022-07-25T00:30:01.761Z,21.42
2022-07-25T00:45:01.704Z,33.2
2022-07-25T01:00:02.204Z,24.42
2022-07-25T01:15:02.082Z,17.8
2022-07-25T01:30:02.311Z,27.96
2022-07-25T01:45:01.600Z,16.73
2022-07-25T02:00:01.906Z,16.7
2022-07-25T02:15:01.993Z,17.59
2022-07-25T02:30:02.267Z,24.6
2022-07-25T02:45:01.468Z,38.27
2022-07-25T03:00:01.708Z,16.26
2022-07-25T03:15:01.542Z,16.18
2022-07-25T03:30:02.774Z,16.44
2022-07-25T03:45:02.661Z,15.61
2022-07-25T04:00:01.365Z,19.76
2022-07-25T04:15:02.357Z,21.51
2022-07-25T04:30:02.364Z,15.97
2022-07-25T04:45:02.039Z,18.7
2022-07-25T05:00:02.021Z,17.71
2022-07-25T05:15:01.906Z,18.95
2022-07-25T05:30:02.227Z,17.61
2022-07-25T05:45:01.938Z,18.71
2022-07-25T06:00:01.669Z,19.46
2022-07-25T06:15:02.207Z,19.39
2022-07-25T06:30:01.444Z,20.3
2022-07-25T06:45:02.201Z,20.7
2022-07-25T07:00:01.930Z,21.46
2022-07-25T07:15:02.122Z,22.4
2022-07-25T07:30:01.406Z,22.5
2022-07-25T07:45:02.134Z,24.17
2022-07-25T08:00:01.938Z,24.73
2022-07-25T08:30:01.965Z,26.29
2022-07-25T08:45:02.339Z,26.78
2022-07-25T09:00:01.459Z,27.94
2022-07-25T09:15:02.281Z,28.7
2022-07-25T09:30:02.025Z,29.97
2022-07-25T09:45:02.370Z,31.12
2022-07-25T10:00:03.149Z,31.4
2022-07-25T10:15:01.405Z,32.75
2022-07-25T10:30:01.702Z,50.75
2022-07-25T10:45:02.777Z,74.66
2022-07-25T11:00:02.868Z,91.66
2022-07-25T11:15:02.264Z,96.1
2022-07-25T11:30:02.213Z,89.36
2022-07-25T11:45:01.862Z,89.36
2022-07-25T12:00:02.259Z,89.36
2022-07-25T12:15:02.257Z,89.36
2022-07-25T12:30:01.542Z,89.36
2022-07-25T12:45:01.749Z,89.36
2022-07-25T13:00:02.069Z,89.36
2022-07-25T13:15:02.260Z,89.36
2022-07-25T13:30:02.290Z,89.36
2022-07-25T13:45:01.635Z,89.36
2022-07-25T14:00:01.769Z,89.36
2022-07-25T14:15:01.956Z,89.36
2022-07-25T14:30:02.586Z,89.36
2022-07-25T14:45:02.262Z,89.36
2022-07-25T15:00:02.404Z,89.36
2022-07-25T15:15:02.698Z,89.36
2022-07-25T15:30:03.166Z,89.36
2022-07-25T15:45:31.219Z,89.36
2022-07-25T16:00:01.822Z,89.36
2022-07-25T16:15:02.108Z,89.36
2022-07-25T16:30:02.450Z,89.36
2022-07-25T16:45:02.776Z,89.36
2022-07-25T17:00:01.426Z,89.36
2022-07-25T17:15:01.549Z,89.36
2022-07-25T17:30:01.833Z,89.36
2022-07-25T17:45:02.067Z,89.36
2022-07-25T18:00:02.352Z,89.36
2022-07-25T18:15:02.707Z,89.36
2022-07-25T18:30:02.607Z,89.36
2022-07-25T18:45:03.039Z,89.36
2022-07-25T19:00:03.897Z,89.36
2022-07-25T19:15:01.920Z,89.36
2022-07-25T19:30:02.370Z,89.36
2022-07-25T19:45:02.843Z,89.36
2022-07-25T20:00:01.720Z,89.36
2022-07-25T20:15:02.522Z,89.36
2022-07-25T20:30:02.104Z,89.36
2022-07-25T20:45:01.348Z,89.36
2022-07-25T21:00:02.099Z,89.36
2022-07-25T21:15:01.511Z,89.36
2022-07-25T21:30:01.810Z,89.36
2022-07-25T21:45:02.752Z,89.36
2022-07-25T22:00:02.247Z,0.95
2022-07-25T22:15:02.339Z,0.95
2022-07-25T22:30:02.018Z,0.95
2022-07-25T22:45:01.938Z,0.95
2022-07-25T23:00:02.238Z,0.95
2022-07-25T23:15:03.096Z,19.81
2022-07-25T23:30:02.011Z,19.98
2022-07-25T23:45:02.755Z,20.5
